sensor_id;sensor_type;location;lat;lon;timestamp;temperature;humidity
26224;DHT22;14820;48.682;8.890;2023-02-15T00:01:15;0.30;99.90
26224;DHT22;14820;48.682;8.890;2023-02-15T00:03:41;0.30;99.90
26224;DHT22;14820;48.682;8.890;2023-02-15T00:06:06;0.20;99.90
26224;DHT22;14820;48.682;8.890;2023-02-15T00:08:32;0.20;99.90
26224;DHT22;14820;48.682;8.890;2023-02-15T00:11:12;0.20;99.90
26224;DHT22;14820;48.682;8.890;2023-02-15T00:13:39;0.20;99.90
26224;DHT22;14820;48.682;8.890;2023-02-15T00:16:12;0.20;99.90
26224;DHT22;14820;48.682;8.890;2023-02-15T00:18:41;0.20;99.90
26224;DHT22;14820;48.682;8.890;2023-02-15T00:21:09;0.20;99.90
26224;DHT22;14820;48.682;8.890;2023-02-15T00:23:35;0.10;99.90
26224;DHT22;14820;48.682;8.890;2023-02-15T00:26:19;0.10;99.90
26224;DHT22;14820;48.682;8.890;2023-02-15T00:28:45;0.10;99.90
26224;DHT22;14820;48.682;8.890;2023-02-15T00:31:11;0.10;99.90
26224;DHT22;14820;48.682;8.890;2023-02-15T00:33:38;0.20;99.90
26224;DHT22;14820;48.682;8.890;2023-02-15T00:36:06;0.10;99.90
26224;DHT22;14820;48.682;8.890;2023-02-15T00:38:33;0.10;99.90
26224;DHT22;14820;48.682;8.890;2023-02-15T00:41:01;0.00;99.90
26224;DHT22;14820;48.682;8.890;2023-02-15T00:43:29;0.10;99.90
26224;DHT22;14820;48.682;8.890;2023-02-15T00:45:55;0.00;99.90
26224;DHT22;14820;48.682;8.890;2023-02-15T00:48:21;0.00;99.90
26224;DHT22;14820;48.682;8.890;2023-02-15T00:50:52;0.00;99.90
26224;DHT22;14820;48.682;8.890;2023-02-15T00:53:18;0.00;99.90
26224;DHT22;14820;48.682;8.890;2023-02-15T00:55:44;0.00;99.90
26224;DHT22;14820;48.682;8.890;2023-02-15T00:58:11;0.10;99.90
26224;DHT22;14820;48.682;8.890;2023-02-15T01:00:37;0.00;99.90
26224;DHT22;14820;48.682;8.890;2023-02-15T01:03:03;0.00;99.90
26224;DHT22;14820;48.682;8.890;2023-02-15T01:05:30;0.00;99.90
26224;DHT22;14820;48.682;8.890;2023-02-15T01:07:58;0.00;99.90
26224;DHT22;14820;48.682;8.890;2023-02-15T01:10:24;0.00;99.90
26224;DHT22;14820;48.682;8.890;2023-02-15T01:12:51;-0.10;99.90
26224;DHT22;14820;48.682;8.890;2023-02-15T01:15:17;-0.10;99.90
26224;DHT22;14820;48.682;8.890;2023-02-15T01:17:43;-0.10;99.90
26224;DHT22;14820;48.682;8.890;2023-02-15T01:20:11;-0.10;99.90
26224;DHT22;14820;48.682;8.890;2023-02-15T01:22:37;-0.20;99.90
26224;DHT22;14820;48.682;8.890;2023-02-15T01:25:03;-0.20;99.90
26224;DHT22;14820;48.682;8.890;2023-02-15T01:27:29;-0.20;99.90
26224;DHT22;14820;48.682;8.890;2023-02-15T01:29:56;-0.10;99.90
26224;DHT22;14820;48.682;8.890;2023-02-15T01:32:22;-0.10;99.90
26224;DHT22;14820;48.682;8.890;2023-02-15T01:34:48;-0.20;99.90
26224;DHT22;14820;48.682;8.890;2023-02-15T01:37:13;-0.20;99.90
26224;DHT22;14820;48.682;8.890;2023-02-15T01:39:39;-0.30;99.90
26224;DHT22;14820;48.682;8.890;2023-02-15T01:42:05;-0.30;99.90
26224;DHT22;14820;48.682;8.890;2023-02-15T01:44:59;-0.30;99.90
26224;DHT22;14820;48.682;8.890;2023-02-15T01:47:54;-0.30;99.90
26224;DHT22;14820;48.682;8.890;2023-02-15T01:50:43;-0.30;99.90
26224;DHT22;14820;48.682;8.890;2023-02-15T01:55:48;-0.40;99.90
26224;DHT22;14820;48.682;8.890;2023-02-15T01:58:15;-0.40;99.90
26224;DHT22;14820;48.682;8.890;2023-02-15T02:00:41;-0.40;99.90
26224;DHT22;14820;48.682;8.890;2023-02-15T02:03:07;-0.40;99.90
26224;DHT22;14820;48.682;8.890;2023-02-15T02:05:33;-0.50;99.90
26224;DHT22;14820;48.682;8.890;2023-02-15T02:08:01;-0.50;99.90
26224;DHT22;14820;48.682;8.890;2023-02-15T02:10:28;-0.50;99.90
26224;DHT22;14820;48.682;8.890;2023-02-15T02:12:59;-0.50;99.90
26224;DHT22;14820;48.682;8.890;2023-02-15T02:15:34;-0.60;99.90
26224;DHT22;14820;48.682;8.890;2023-02-15T02:23:40;-0.50;99.90
26224;DHT22;14820;48.682;8.890;2023-02-15T02:29:33;-0.60;99.90
26224;DHT22;14820;48.682;8.890;2023-02-15T02:35:18;-0.50;99.90
26224;DHT22;14820;48.682;8.890;2023-02-15T02:48:46;-0.70;99.90
26224;DHT22;14820;48.682;8.890;2023-02-15T02:51:13;-0.70;99.90
26224;DHT22;14820;48.682;8.890;2023-02-15T02:53:39;-0.70;99.90
26224;DHT22;14820;48.682;8.890;2023-02-15T02:56:11;-0.70;99.90
26224;DHT22;14820;48.682;8.890;2023-02-15T02:58:45;-0.70;99.90
26224;DHT22;14820;48.682;8.890;2023-02-15T03:01:33;-0.70;99.90
26224;DHT22;14820;48.682;8.890;2023-02-15T03:04:04;-0.70;99.90
26224;DHT22;14820;48.682;8.890;2023-02-15T03:06:40;-0.70;99.90
26224;DHT22;14820;48.682;8.890;2023-02-15T03:09:15;-0.80;99.90
26224;DHT22;14820;48.682;8.890;2023-02-15T03:11:44;-0.80;99.90
26224;DHT22;14820;48.682;8.890;2023-02-15T03:14:11;-0.90;99.90
26224;DHT22;14820;48.682;8.890;2023-02-15T03:16:40;-1.00;99.90
26224;DHT22;14820;48.682;8.890;2023-02-15T03:19:19;-0.90;99.90
26224;DHT22;14820;48.682;8.890;2023-02-15T03:21:51;-0.90;99.90
26224;DHT22;14820;48.682;8.890;2023-02-15T03:24:54;-0.90;99.90
26224;DHT22;14820;48.682;8.890;2023-02-15T03:27:25;-0.90;99.90
26224;DHT22;14820;48.682;8.890;2023-02-15T03:29:56;-0.90;99.90
26224;DHT22;14820;48.682;8.890;2023-02-15T03:32:25;-0.90;99.90
26224;DHT22;14820;48.682;8.890;2023-02-15T03:34:54;-0.90;99.90
26224;DHT22;14820;48.682;8.890;2023-02-15T03:43:42;-1.00;99.90
26224;DHT22;14820;48.682;8.890;2023-02-15T03:48:56;-0.90;99.90
26224;DHT22;14820;48.682;8.890;2023-02-15T03:51:27;-0.90;99.90
26224;DHT22;14820;48.682;8.890;2023-02-15T08:24:01;0.40;99.90
26224;DHT22;14820;48.682;8.890;2023-02-15T08:28:54;0.40;99.90
26224;DHT22;14820;48.682;8.890;2023-02-15T08:31:20;0.40;99.90
26224;DHT22;14820;48.682;8.890;2023-02-15T08:33:47;0.50;99.90
26224;DHT22;14820;48.682;8.890;2023-02-15T08:36:18;0.60;99.90
26224;DHT22;14820;48.682;8.890;2023-02-15T08:38:45;0.70;99.90
26224;DHT22;14820;48.682;8.890;2023-02-15T08:41:18;0.80;99.90
26224;DHT22;14820;48.682;8.890;2023-02-15T08:58:31;1.60;99.90
26224;DHT22;14820;48.682;8.890;2023-02-15T09:32:47;3.10;99.90
26224;DHT22;14820;48.682;8.890;2023-02-15T09:35:13;3.20;99.90
26224;DHT22;14820;48.682;8.890;2023-02-15T09:37:39;3.30;99.90
26224;DHT22;14820;48.682;8.890;2023-02-15T09:40:05;3.40;99.90
26224;DHT22;14820;48.682;8.890;2023-02-15T09:51:03;4.00;99.90
26224;DHT22;14820;48.682;8.890;2023-02-15T09:53:41;4.30;99.90
26224;DHT22;14820;48.682;8.890;2023-02-15T09:56:17;4.50;99.90
26224;DHT22;14820;48.682;8.890;2023-02-15T10:04:22;4.90;99.90
26224;DHT22;14820;48.682;8.890;2023-02-15T10:12:23;5.40;99.90
26224;DHT22;14820;48.682;8.890;2023-02-15T10:20:20;5.90;99.90
26224;DHT22;14820;48.682;8.890;2023-02-15T10:28:39;6.60;99.90
26224;DHT22;14820;48.682;8.890;2023-02-15T11:00:56;8.90;99.90
26224;DHT22;14820;48.682;8.890;2023-02-15T11:04:00;9.10;99.90
26224;DHT22;14820;48.682;8.890;2023-02-15T11:06:20;9.20;99.90
26224;DHT22;14820;48.682;8.890;2023-02-15T11:08:52;9.40;99.90
26224;DHT22;14820;48.682;8.890;2023-02-15T11:11:26;9.50;99.90
26224;DHT22;14820;48.682;8.890;2023-02-15T11:14:01;9.70;99.90
26224;DHT22;14820;48.682;8.890;2023-02-15T11:16:34;9.80;99.90
26224;DHT22;14820;48.682;8.890;2023-02-15T11:21:46;10.10;99.90
26224;DHT22;14820;48.682;8.890;2023-02-15T11:24:17;10.20;99.90
26224;DHT22;14820;48.682;8.890;2023-02-15T11:26:51;10.30;99.90
26224;DHT22;14820;48.682;8.890;2023-02-15T11:31:57;10.60;99.90
26224;DHT22;14820;48.682;8.890;2023-02-15T11:34:36;10.80;99.90
26224;DHT22;14820;48.682;8.890;2023-02-15T11:47:03;11.50;99.90
26224;DHT22;14820;48.682;8.890;2023-02-15T11:49:34;11.60;99.90
26224;DHT22;14820;48.682;8.890;2023-02-15T11:52:13;11.70;99.90
26224;DHT22;14820;48.682;8.890;2023-02-15T11:59:42;12.00;99.90
26224;DHT22;14820;48.682;8.890;2023-02-15T12:02:16;12.10;99.90
26224;DHT22;14820;48.682;8.890;2023-02-15T12:04:51;12.10;99.90
26224;DHT22;14820;48.682;8.890;2023-02-15T12:07:25;12.20;99.90
26224;DHT22;14820;48.682;8.890;2023-02-15T12:12:31;12.40;99.90
26224;DHT22;14820;48.682;8.890;2023-02-15T12:14:59;12.40;99.90
26224;DHT22;14820;48.682;8.890;2023-02-15T12:22:41;12.80;99.90
26224;DHT22;14820;48.682;8.890;2023-02-15T12:25:26;12.90;99.90
26224;DHT22;14820;48.682;8.890;2023-02-15T12:27:55;13.00;99.90
26224;DHT22;14820;48.682;8.890;2023-02-15T12:30:32;13.10;99.90
26224;DHT22;14820;48.682;8.890;2023-02-15T12:33:27;13.20;99.90
26224;DHT22;14820;48.682;8.890;2023-02-15T12:36:11;13.30;99.90
26224;DHT22;14820;48.682;8.890;2023-02-15T12:38:37;13.40;99.90
26224;DHT22;14820;48.682;8.890;2023-02-15T12:41:19;13.50;99.90
26224;DHT22;14820;48.682;8.890;2023-02-15T12:43:47;13.40;99.90
26224;DHT22;14820;48.682;8.890;2023-02-15T12:46:19;13.50;99.90
26224;DHT22;14820;48.682;8.890;2023-02-15T12:48:45;13.60;99.90
26224;DHT22;14820;48.682;8.890;2023-02-15T12:51:14;13.70;99.80
26224;DHT22;14820;48.682;8.890;2023-02-15T12:58:36;14.00;99.90
26224;DHT22;14820;48.682;8.890;2023-02-15T13:03:27;14.10;98.30
26224;DHT22;14820;48.682;8.890;2023-02-15T13:05:55;14.20;97.80
26224;DHT22;14820;48.682;8.890;2023-02-15T13:08:27;14.20;96.50
26224;DHT22;14820;48.682;8.890;2023-02-15T13:13:28;14.30;95.80
26224;DHT22;14820;48.682;8.890;2023-02-15T13:16:04;14.40;94.90
26224;DHT22;14820;48.682;8.890;2023-02-15T13:18:45;14.50;94.20
26224;DHT22;14820;48.682;8.890;2023-02-15T13:21:15;14.50;93.90
26224;DHT22;14820;48.682;8.890;2023-02-15T13:23:48;14.60;93.50
26224;DHT22;14820;48.682;8.890;2023-02-15T13:26:22;14.60;92.90
26224;DHT22;14820;48.682;8.890;2023-02-15T13:28:54;14.70;93.10
26224;DHT22;14820;48.682;8.890;2023-02-15T13:31:24;14.70;93.00
26224;DHT22;14820;48.682;8.890;2023-02-15T13:33:54;14.70;92.10
26224;DHT22;14820;48.682;8.890;2023-02-15T13:36:34;14.80;92.20
26224;DHT22;14820;48.682;8.890;2023-02-15T13:50:28;15.00;88.50
26224;DHT22;14820;48.682;8.890;2023-02-15T13:53:12;15.00;90.80
26224;DHT22;14820;48.682;8.890;2023-02-15T13:55:52;15.10;89.50
26224;DHT22;14820;48.682;8.890;2023-02-15T14:01:31;15.20;89.70
26224;DHT22;14820;48.682;8.890;2023-02-15T14:04:32;15.30;90.00
26224;DHT22;14820;48.682;8.890;2023-02-15T14:12:42;15.30;90.40
26224;DHT22;14820;48.682;8.890;2023-02-15T14:15:26;15.40;89.00
26224;DHT22;14820;48.682;8.890;2023-02-15T14:18:42;15.50;89.60
26224;DHT22;14820;48.682;8.890;2023-02-15T14:31:54;15.70;87.30
26224;DHT22;14820;48.682;8.890;2023-02-15T14:34:31;15.80;87.80
26224;DHT22;14820;48.682;8.890;2023-02-15T14:39:44;15.80;86.10
26224;DHT22;14820;48.682;8.890;2023-02-15T14:42:51;16.00;85.90
26224;DHT22;14820;48.682;8.890;2023-02-15T14:50:52;16.10;99.90
26224;DHT22;14820;48.682;8.890;2023-02-15T15:05:54;16.60;99.90
26224;DHT22;14820;48.682;8.890;2023-02-15T15:10:53;16.50;99.90
26224;DHT22;14820;48.682;8.890;2023-02-15T15:16:28;16.30;99.90
26224;DHT22;14820;48.682;8.890;2023-02-15T15:18:54;16.20;97.60
26224;DHT22;14820;48.682;8.890;2023-02-15T15:49:45;14.40;99.90
26224;DHT22;14820;48.682;8.890;2023-02-15T15:52:19;14.60;99.90
26224;DHT22;14820;48.682;8.890;2023-02-15T15:59:57;13.60;89.90
26224;DHT22;14820;48.682;8.890;2023-02-15T16:02:26;13.70;90.30
26224;DHT22;14820;48.682;8.890;2023-02-15T16:04:52;13.50;90.70
26224;DHT22;14820;48.682;8.890;2023-02-15T16:12:21;13.00;93.00
26224;DHT22;14820;48.682;8.890;2023-02-15T16:14:47;12.90;94.60
26224;DHT22;14820;48.682;8.890;2023-02-15T16:17:24;12.70;95.40
26224;DHT22;14820;48.682;8.890;2023-02-15T16:19:52;12.40;94.50
26224;DHT22;14820;48.682;8.890;2023-02-15T16:22:21;12.30;94.90
26224;DHT22;14820;48.682;8.890;2023-02-15T16:25:14;12.10;94.80
26224;DHT22;14820;48.682;8.890;2023-02-15T16:27:44;11.90;94.90
26224;DHT22;14820;48.682;8.890;2023-02-15T16:30:24;11.70;95.00
26224;DHT22;14820;48.682;8.890;2023-02-15T16:33:03;11.60;95.30
26224;DHT22;14820;48.682;8.890;2023-02-15T16:35:29;11.50;95.80
26224;DHT22;14820;48.682;8.890;2023-02-15T16:37:55;11.40;96.10
26224;DHT22;14820;48.682;8.890;2023-02-15T16:43:18;11.20;96.40
26224;DHT22;14820;48.682;8.890;2023-02-15T16:45:46;11.10;97.00
26224;DHT22;14820;48.682;8.890;2023-02-15T16:48:17;11.00;97.30
26224;DHT22;14820;48.682;8.890;2023-02-15T16:50:50;10.80;97.20
26224;DHT22;14820;48.682;8.890;2023-02-15T16:53:27;10.70;97.50
26224;DHT22;14820;48.682;8.890;2023-02-15T16:56:04;10.60;97.80
26224;DHT22;14820;48.682;8.890;2023-02-15T16:58:36;10.50;97.80
26224;DHT22;14820;48.682;8.890;2023-02-15T17:01:03;10.40;98.30
26224;DHT22;14820;48.682;8.890;2023-02-15T17:03:31;10.30;98.80
26224;DHT22;14820;48.682;8.890;2023-02-15T17:05:59;10.10;99.10
26224;DHT22;14820;48.682;8.890;2023-02-15T17:08:41;9.90;99.00
26224;DHT22;14820;48.682;8.890;2023-02-15T17:11:13;9.80;99.40
26224;DHT22;14820;48.682;8.890;2023-02-15T17:13:40;9.60;99.80
26224;DHT22;14820;48.682;8.890;2023-02-15T17:16:28;9.50;99.90
26224;DHT22;14820;48.682;8.890;2023-02-15T17:18:55;9.30;99.90
26224;DHT22;14820;48.682;8.890;2023-02-15T17:24:01;9.20;99.90
26224;DHT22;14820;48.682;8.890;2023-02-15T17:29:24;8.70;99.90
26224;DHT22;14820;48.682;8.890;2023-02-15T17:31:54;8.50;99.90
26224;DHT22;14820;48.682;8.890;2023-02-15T17:35:14;8.40;99.90
26224;DHT22;14820;48.682;8.890;2023-02-15T17:37:47;8.20;99.90
26224;DHT22;14820;48.682;8.890;2023-02-15T17:40:22;7.90;99.90
26224;DHT22;14820;48.682;8.890;2023-02-15T17:42:48;7.70;99.90
26224;DHT22;14820;48.682;8.890;2023-02-15T17:45:14;7.60;99.90
26224;DHT22;14820;48.682;8.890;2023-02-15T17:47:40;7.50;99.90
26224;DHT22;14820;48.682;8.890;2023-02-15T17:50:07;7.40;99.90
26224;DHT22;14820;48.682;8.890;2023-02-15T17:52:34;7.30;99.90
26224;DHT22;14820;48.682;8.890;2023-02-15T17:55:07;7.20;99.90
26224;DHT22;14820;48.682;8.890;2023-02-15T17:57:55;7.20;99.90
26224;DHT22;14820;48.682;8.890;2023-02-15T18:00:21;7.00;99.90
26224;DHT22;14820;48.682;8.890;2023-02-15T18:03:09;7.00;99.90
26224;DHT22;14820;48.682;8.890;2023-02-15T18:05:53;6.80;99.90
26224;DHT22;14820;48.682;8.890;2023-02-15T18:08:38;6.70;99.90
26224;DHT22;14820;48.682;8.890;2023-02-15T18:11:22;6.30;99.90
26224;DHT22;14820;48.682;8.890;2023-02-15T18:14:11;6.30;99.90
26224;DHT22;14820;48.682;8.890;2023-02-15T18:16:40;6.30;99.90
26224;DHT22;14820;48.682;8.890;2023-02-15T18:19:20;6.10;99.90
26224;DHT22;14820;48.682;8.890;2023-02-15T18:21:46;5.90;99.90
26224;DHT22;14820;48.682;8.890;2023-02-15T18:24:24;5.80;99.90
26224;DHT22;14820;48.682;8.890;2023-02-15T18:26:50;5.70;99.90
26224;DHT22;14820;48.682;8.890;2023-02-15T18:29:17;5.60;99.90
26224;DHT22;14820;48.682;8.890;2023-02-15T18:31:43;5.60;99.90
26224;DHT22;14820;48.682;8.890;2023-02-15T18:34:23;5.70;99.90
26224;DHT22;14820;48.682;8.890;2023-02-15T18:36:50;5.70;99.90
26224;DHT22;14820;48.682;8.890;2023-02-15T18:39:26;5.80;99.90
26224;DHT22;14820;48.682;8.890;2023-02-15T18:41:54;5.80;99.90
26224;DHT22;14820;48.682;8.890;2023-02-15T18:44:20;5.80;99.90
26224;DHT22;14820;48.682;8.890;2023-02-15T18:46:46;5.80;99.90
26224;DHT22;14820;48.682;8.890;2023-02-15T18:49:11;5.60;99.90
26224;DHT22;14820;48.682;8.890;2023-02-15T18:54:27;5.30;99.90
26224;DHT22;14820;48.682;8.890;2023-02-15T18:56:55;5.10;99.90
26224;DHT22;14820;48.682;8.890;2023-02-15T18:59:22;5.00;99.90
26224;DHT22;14820;48.682;8.890;2023-02-15T19:01:49;5.00;99.90
26224;DHT22;14820;48.682;8.890;2023-02-15T19:04:15;4.80;99.90
26224;DHT22;14820;48.682;8.890;2023-02-15T19:06:44;4.80;99.90
26224;DHT22;14820;48.682;8.890;2023-02-15T19:09:22;4.70;99.90
26224;DHT22;14820;48.682;8.890;2023-02-15T19:11:55;4.70;99.90
26224;DHT22;14820;48.682;8.890;2023-02-15T19:14:30;4.60;99.90
26224;DHT22;14820;48.682;8.890;2023-02-15T19:16:58;4.50;99.90
26224;DHT22;14820;48.682;8.890;2023-02-15T19:19:25;4.50;99.90
26224;DHT22;14820;48.682;8.890;2023-02-15T19:21:51;4.40;99.90
26224;DHT22;14820;48.682;8.890;2023-02-15T19:24:44;4.40;99.90
26224;DHT22;14820;48.682;8.890;2023-02-15T19:27:20;4.30;99.90
26224;DHT22;14820;48.682;8.890;2023-02-15T19:29:48;4.20;99.90
26224;DHT22;14820;48.682;8.890;2023-02-15T19:32:13;4.10;99.90
26224;DHT22;14820;48.682;8.890;2023-02-15T19:34:39;4.10;99.90
26224;DHT22;14820;48.682;8.890;2023-02-15T19:37:05;4.00;99.90
26224;DHT22;14820;48.682;8.890;2023-02-15T19:39:36;3.90;99.90
26224;DHT22;14820;48.682;8.890;2023-02-15T19:42:03;3.80;99.90
26224;DHT22;14820;48.682;8.890;2023-02-15T19:44:32;3.80;99.90
26224;DHT22;14820;48.682;8.890;2023-02-15T19:46:57;3.70;99.90
26224;DHT22;14820;48.682;8.890;2023-02-15T19:49:23;3.60;99.90
26224;DHT22;14820;48.682;8.890;2023-02-15T19:51:49;3.50;99.90
26224;DHT22;14820;48.682;8.890;2023-02-15T19:54:29;3.50;99.90
26224;DHT22;14820;48.682;8.890;2023-02-15T19:56:56;3.30;99.90
26224;DHT22;14820;48.682;8.890;2023-02-15T19:59:27;3.30;99.90
26224;DHT22;14820;48.682;8.890;2023-02-15T20:01:54;3.40;99.90
26224;DHT22;14820;48.682;8.890;2023-02-15T20:04:20;3.40;99.90
26224;DHT22;14820;48.682;8.890;2023-02-15T20:06:47;3.40;99.90
26224;DHT22;14820;48.682;8.890;2023-02-15T20:09:25;3.50;99.90
26224;DHT22;14820;48.682;8.890;2023-02-15T20:11:53;3.30;99.90
26224;DHT22;14820;48.682;8.890;2023-02-15T20:14:20;3.30;99.90
26224;DHT22;14820;48.682;8.890;2023-02-15T20:16:45;3.20;99.90
26224;DHT22;14820;48.682;8.890;2023-02-15T20:19:11;3.20;99.90
26224;DHT22;14820;48.682;8.890;2023-02-15T20:21:42;3.20;99.90
26224;DHT22;14820;48.682;8.890;2023-02-15T20:24:14;3.10;99.90
26224;DHT22;14820;48.682;8.890;2023-02-15T20:26:40;3.20;99.90
26224;DHT22;14820;48.682;8.890;2023-02-15T20:29:11;3.00;99.90
26224;DHT22;14820;48.682;8.890;2023-02-15T20:31:37;2.90;99.90
26224;DHT22;14820;48.682;8.890;2023-02-15T20:34:03;2.90;99.90
26224;DHT22;14820;48.682;8.890;2023-02-15T20:36:29;2.90;99.90
26224;DHT22;14820;48.682;8.890;2023-02-15T20:38:56;2.90;99.90
26224;DHT22;14820;48.682;8.890;2023-02-15T20:41:22;2.90;99.90
26224;DHT22;14820;48.682;8.890;2023-02-15T20:46:37;2.80;99.90
26224;DHT22;14820;48.682;8.890;2023-02-15T20:49:03;2.80;99.90
26224;DHT22;14820;48.682;8.890;2023-02-15T20:51:28;2.80;99.90
26224;DHT22;14820;48.682;8.890;2023-02-15T20:53:54;2.80;99.90
26224;DHT22;14820;48.682;8.890;2023-02-15T20:56:22;2.80;99.90
26224;DHT22;14820;48.682;8.890;2023-02-15T20:58:48;2.70;99.90
26224;DHT22;14820;48.682;8.890;2023-02-15T21:01:14;2.60;99.90
26224;DHT22;14820;48.682;8.890;2023-02-15T21:03:40;2.60;99.90
26224;DHT22;14820;48.682;8.890;2023-02-15T21:06:07;2.50;99.90
26224;DHT22;14820;48.682;8.890;2023-02-15T21:08:36;2.50;99.90
26224;DHT22;14820;48.682;8.890;2023-02-15T21:11:02;2.50;99.90
26224;DHT22;14820;48.682;8.890;2023-02-15T21:13:34;2.40;99.90
26224;DHT22;14820;48.682;8.890;2023-02-15T21:16:00;2.30;99.90
26224;DHT22;14820;48.682;8.890;2023-02-15T21:18:28;2.30;99.90
26224;DHT22;14820;48.682;8.890;2023-02-15T21:20:57;2.40;99.90
26224;DHT22;14820;48.682;8.890;2023-02-15T21:23:25;2.40;99.90
26224;DHT22;14820;48.682;8.890;2023-02-15T21:25:54;2.40;99.90
26224;DHT22;14820;48.682;8.890;2023-02-15T21:28:23;2.40;99.90
26224;DHT22;14820;48.682;8.890;2023-02-15T21:30:52;2.40;99.90
26224;DHT22;14820;48.682;8.890;2023-02-15T21:33:18;2.40;99.90
26224;DHT22;14820;48.682;8.890;2023-02-15T21:35:47;2.20;99.90
26224;DHT22;14820;48.682;8.890;2023-02-15T21:38:20;2.10;99.90
26224;DHT22;14820;48.682;8.890;2023-02-15T21:40:47;2.20;99.90
26224;DHT22;14820;48.682;8.890;2023-02-15T21:43:21;2.20;99.90
26224;DHT22;14820;48.682;8.890;2023-02-15T21:46:15;2.30;99.90
26224;DHT22;14820;48.682;8.890;2023-02-15T21:48:59;2.40;99.90
26224;DHT22;14820;48.682;8.890;2023-02-15T21:51:26;2.40;99.90
26224;DHT22;14820;48.682;8.890;2023-02-15T21:54:12;2.30;99.90
26224;DHT22;14820;48.682;8.890;2023-02-15T21:56:39;2.20;99.90
26224;DHT22;14820;48.682;8.890;2023-02-15T21:59:11;2.20;99.90
26224;DHT22;14820;48.682;8.890;2023-02-15T22:01:39;2.10;99.90
26224;DHT22;14820;48.682;8.890;2023-02-15T22:04:18;2.00;99.90
26224;DHT22;14820;48.682;8.890;2023-02-15T22:06:45;2.00;99.90
26224;DHT22;14820;48.682;8.890;2023-02-15T22:09:19;2.10;99.90
26224;DHT22;14820;48.682;8.890;2023-02-15T22:11:46;1.90;99.90
26224;DHT22;14820;48.682;8.890;2023-02-15T22:16:52;1.90;99.90
26224;DHT22;14820;48.682;8.890;2023-02-15T22:19:18;1.90;99.90
26224;DHT22;14820;48.682;8.890;2023-02-15T22:21:43;1.90;99.90
26224;DHT22;14820;48.682;8.890;2023-02-15T22:24:09;1.80;99.90
26224;DHT22;14820;48.682;8.890;2023-02-15T22:26:35;1.80;99.90
26224;DHT22;14820;48.682;8.890;2023-02-15T22:29:00;1.70;99.90
26224;DHT22;14820;48.682;8.890;2023-02-15T22:31:26;1.80;99.90
26224;DHT22;14820;48.682;8.890;2023-02-15T22:33:52;1.80;99.90
26224;DHT22;14820;48.682;8.890;2023-02-15T22:36:28;1.70;99.90
26224;DHT22;14820;48.682;8.890;2023-02-15T22:38:54;1.70;99.90
26224;DHT22;14820;48.682;8.890;2023-02-15T22:41:25;1.70;99.90
26224;DHT22;14820;48.682;8.890;2023-02-15T22:43:51;1.70;99.90
26224;DHT22;14820;48.682;8.890;2023-02-15T22:46:20;1.60;99.90
26224;DHT22;14820;48.682;8.890;2023-02-15T22:48:47;1.50;99.90
26224;DHT22;14820;48.682;8.890;2023-02-15T22:51:15;1.50;99.90
26224;DHT22;14820;48.682;8.890;2023-02-15T22:53:41;1.40;99.90
26224;DHT22;14820;48.682;8.890;2023-02-15T22:56:11;1.40;99.90
26224;DHT22;14820;48.682;8.890;2023-02-15T22:58:37;1.50;99.90
26224;DHT22;14820;48.682;8.890;2023-02-15T23:01:03;1.50;99.90
26224;DHT22;14820;48.682;8.890;2023-02-15T23:03:30;1.40;99.90
26224;DHT22;14820;48.682;8.890;2023-02-15T23:05:57;1.40;99.90
26224;DHT22;14820;48.682;8.890;2023-02-15T23:08:23;1.40;99.90
26224;DHT22;14820;48.682;8.890;2023-02-15T23:10:53;1.50;99.90
26224;DHT22;14820;48.682;8.890;2023-02-15T23:13:21;1.40;99.90
26224;DHT22;14820;48.682;8.890;2023-02-15T23:15:51;1.30;99.90
26224;DHT22;14820;48.682;8.890;2023-02-15T23:21:02;1.20;99.90
26224;DHT22;14820;48.682;8.890;2023-02-15T23:23:35;1.20;99.90
26224;DHT22;14820;48.682;8.890;2023-02-15T23:26:02;1.10;99.90
26224;DHT22;14820;48.682;8.890;2023-02-15T23:28:39;1.10;99.90
26224;DHT22;14820;48.682;8.890;2023-02-15T23:31:22;1.10;99.90
26224;DHT22;14820;48.682;8.890;2023-02-15T23:33:49;1.10;99.90
26224;DHT22;14820;48.682;8.890;2023-02-15T23:36:28;1.10;99.90
26224;DHT22;14820;48.682;8.890;2023-02-15T23:38:56;1.20;99.90
26224;DHT22;14820;48.682;8.890;2023-02-15T23:41:25;1.10;99.90
26224;DHT22;14820;48.682;8.890;2023-02-15T23:43:59;1.20;99.90
26224;DHT22;14820;48.682;8.890;2023-02-15T23:46:41;1.10;99.90
26224;DHT22;14820;48.682;8.890;2023-02-15T23:49:11;1.10;99.90
26224;DHT22;14820;48.682;8.890;2023-02-15T23:51:42;1.20;99.90
26224;DHT22;14820;48.682;8.890;2023-02-15T23:54:08;1.20;99.90
26224;DHT22;14820;48.682;8.890;2023-02-15T23:56:34;1.20;99.90
26224;DHT22;14820;48.682;8.890;2023-02-15T23:59:00;1.20;99.90
